createdAt,value
2023-05-06T00:00:18.225Z,15.27
2023-05-06T00:02:48.853Z,15.27
2023-05-06T00:05:20.984Z,15.20
2023-05-06T00:07:51.375Z,15.17
2023-05-06T00:10:24.374Z,15.12
2023-05-06T00:12:54.954Z,15.09
2023-05-06T00:15:25.739Z,15.07
2023-05-06T00:17:56.078Z,15.12
2023-05-06T00:20:27.554Z,15.08
2023-05-06T00:22:58.254Z,15.07
2023-05-06T00:25:31.268Z,15.10
2023-05-06T00:28:01.812Z,15.10
2023-05-06T00:30:32.471Z,15.08
2023-05-06T00:33:03.138Z,15.06
2023-05-06T00:35:33.526Z,15.06
2023-05-06T00:38:12.172Z,15.09
2023-05-06T00:40:45.378Z,15.11
2023-05-06T00:43:16.452Z,15.14
2023-05-06T00:45:48.073Z,15.08
2023-05-06T00:48:19.329Z,15.10
2023-05-06T00:50:49.869Z,15.08
2023-05-06T00:53:24.576Z,15.08
2023-05-06T00:55:57.766Z,15.04
2023-05-06T00:58:28.549Z,15.06
2023-05-06T01:00:59.538Z,15.06
2023-05-06T01:03:30.345Z,15.05
2023-05-06T01:06:11.989Z,15.05
2023-05-06T01:08:51.695Z,15.04
2023-05-06T01:11:42.199Z,15.04
2023-05-06T01:14:24.945Z,15.03
2023-05-06T01:17:01.709Z,15.01
2023-05-06T01:19:42.279Z,14.99
2023-05-06T01:22:14.965Z,14.93
2023-05-06T01:24:49.480Z,14.96
2023-05-06T01:27:20.021Z,14.90
2023-05-06T01:29:51.693Z,14.89
2023-05-06T01:32:41.774Z,14.94
2023-05-06T01:35:24.520Z,14.90
2023-05-06T01:38:08.130Z,14.92
2023-05-06T01:40:43.566Z,14.92
2023-05-06T01:43:17.537Z,14.90
2023-05-06T01:45:53.536Z,14.80
2023-05-06T01:48:27.000Z,14.73
2023-05-06T01:50:59.086Z,14.72
2023-05-06T01:53:29.853Z,14.68
2023-05-06T01:56:02.992Z,14.61
2023-05-06T01:58:33.491Z,14.59
2023-05-06T02:01:04.016Z,14.56
2023-05-06T02:03:34.523Z,14.57
2023-05-06T02:06:04.984Z,14.56
2023-05-06T02:08:41.587Z,14.61
2023-05-06T02:11:18.184Z,14.61
2023-05-06T02:13:49.906Z,14.55
2023-05-06T02:16:22.188Z,14.55
2023-05-06T02:18:53.202Z,14.58
2023-05-06T02:21:23.761Z,14.58
2023-05-06T02:23:54.186Z,14.54
2023-05-06T02:26:27.199Z,14.52
2023-05-06T02:28:57.632Z,14.49
2023-05-06T02:31:28.312Z,14.49
2023-05-06T02:33:58.653Z,14.44
2023-05-06T02:36:29.178Z,14.41
2023-05-06T02:38:59.598Z,14.34
2023-05-06T02:41:32.724Z,14.27
2023-05-06T02:44:03.136Z,14.24
2023-05-06T02:46:35.292Z,14.20
2023-05-06T02:49:05.763Z,14.19
2023-05-06T02:51:36.468Z,14.12
2023-05-06T02:54:07.060Z,14.08
2023-05-06T02:56:40.019Z,14.12
2023-05-06T02:59:10.549Z,14.12
2023-05-06T03:01:40.889Z,14.13
2023-05-06T03:04:11.434Z,14.13
2023-05-06T03:06:41.886Z,14.13
2023-05-06T03:09:12.736Z,14.13
2023-05-06T03:11:46.217Z,14.17
2023-05-06T03:14:16.635Z,14.14
2023-05-06T03:16:47.190Z,14.17
2023-05-06T03:19:18.265Z,14.17
2023-05-06T03:21:49.467Z,14.20
2023-05-06T03:24:21.687Z,14.16
2023-05-06T03:26:55.118Z,14.12
2023-05-06T03:29:26.521Z,14.09
2023-05-06T03:31:59.740Z,14.11
2023-05-06T03:34:30.797Z,14.07
2023-05-06T03:37:02.599Z,14.11
2023-05-06T03:39:33.487Z,14.07
2023-05-06T03:42:09.409Z,14.04
2023-05-06T03:44:40.988Z,14.02
2023-05-06T03:47:11.899Z,14.05
2023-05-06T03:49:42.366Z,14.02
2023-05-06T03:52:12.798Z,13.98
2023-05-06T03:54:43.560Z,13.99
2023-05-06T03:57:16.567Z,13.98
2023-05-06T03:59:47.585Z,13.95
2023-05-06T04:02:19.769Z,13.95
2023-05-06T04:04:50.669Z,13.92
2023-05-06T04:07:21.051Z,13.92
2023-05-06T04:09:51.589Z,13.88
2023-05-06T04:12:25.089Z,13.90
2023-05-06T04:14:56.397Z,13.94
2023-05-06T04:17:27.270Z,13.97
2023-05-06T04:19:57.921Z,13.92
2023-05-06T04:22:28.282Z,13.87
2023-05-06T04:25:00.935Z,13.85
2023-05-06T04:27:35.135Z,13.82
2023-05-06T04:30:07.056Z,13.83
2023-05-06T04:32:38.737Z,13.84
2023-05-06T04:35:12.038Z,13.80
2023-05-06T04:37:44.533Z,13.79
2023-05-06T04:40:26.408Z,13.82
2023-05-06T04:42:59.675Z,13.83
2023-05-06T04:45:32.705Z,13.79
2023-05-06T04:48:03.156Z,13.82
2023-05-06T04:50:35.877Z,13.81
2023-05-06T04:53:06.278Z,13.77
2023-05-06T04:55:37.973Z,13.75
2023-05-06T04:58:11.008Z,13.73
2023-05-06T05:00:44.328Z,13.71
2023-05-06T05:03:14.964Z,13.70
2023-05-06T05:05:45.807Z,13.70
2023-05-06T05:08:20.328Z,13.69
2023-05-06T05:10:50.907Z,13.70
2023-05-06T05:13:26.892Z,13.70
2023-05-06T05:15:59.112Z,13.68
2023-05-06T05:18:32.675Z,13.67
2023-05-06T05:21:09.153Z,13.67
2023-05-06T05:23:40.258Z,13.68
2023-05-06T05:26:10.832Z,13.70
2023-05-06T05:28:44.808Z,13.69
2023-05-06T05:31:16.383Z,13.72
2023-05-06T05:33:47.064Z,13.73
2023-05-06T05:36:20.278Z,13.77
2023-05-06T05:38:53.311Z,13.77
2023-05-06T05:41:26.743Z,13.79
2023-05-06T05:44:00.940Z,13.81
2023-05-06T05:46:31.444Z,13.84
2023-05-06T05:49:02.048Z,13.86
2023-05-06T05:51:32.496Z,13.83
2023-05-06T05:54:05.261Z,13.83
2023-05-06T05:56:35.856Z,13.87
2023-05-06T05:59:09.127Z,13.88
2023-05-06T06:01:39.577Z,13.90
2023-05-06T06:04:11.774Z,13.90
2023-05-06T06:06:42.245Z,13.92
2023-05-06T06:09:13.290Z,13.96
2023-05-06T06:11:44.459Z,14.00
2023-05-06T06:14:17.985Z,14.02
2023-05-06T06:16:50.387Z,14.05
2023-05-06T06:19:21.870Z,14.07
2023-05-06T06:21:52.695Z,14.11
2023-05-06T06:24:23.480Z,14.16
2023-05-06T06:26:53.941Z,14.22
2023-05-06T06:29:27.221Z,14.22
2023-05-06T06:31:58.441Z,14.25
2023-05-06T06:34:29.045Z,14.25
2023-05-06T06:37:00.293Z,14.28
2023-05-06T06:39:30.664Z,14.31
2023-05-06T06:42:04.473Z,14.31
2023-05-06T06:44:43.737Z,14.34
2023-05-06T06:47:14.249Z,14.35
2023-05-06T06:49:44.865Z,14.38
2023-05-06T06:52:15.276Z,14.48
2023-05-06T06:54:45.862Z,14.51
2023-05-06T06:57:16.659Z,14.57
2023-05-06T06:59:52.113Z,14.58
2023-05-06T07:02:22.921Z,14.59
2023-05-06T07:04:53.489Z,14.59
2023-05-06T07:07:24.001Z,14.70
2023-05-06T07:09:54.408Z,14.72
2023-05-06T07:12:26.876Z,14.81
2023-05-06T07:14:59.898Z,14.82
2023-05-06T07:17:30.279Z,14.86
2023-05-06T07:20:00.865Z,14.92
2023-05-06T07:22:31.820Z,14.89
2023-05-06T07:25:02.243Z,14.94
2023-05-06T07:27:33.441Z,14.96
2023-05-06T07:30:08.278Z,15.01
2023-05-06T07:32:41.477Z,14.98
2023-05-06T07:35:13.035Z,14.98
2023-05-06T07:37:43.537Z,15.05
2023-05-06T07:40:14.921Z,15.08
2023-05-06T07:42:45.272Z,15.16
2023-05-06T07:45:19.857Z,15.23
2023-05-06T07:47:50.460Z,15.19
2023-05-06T07:50:20.992Z,15.27
2023-05-06T07:52:51.420Z,15.35
2023-05-06T07:55:21.997Z,15.44
2023-05-06T07:57:53.000Z,15.36
2023-05-06T08:00:26.091Z,15.45
2023-05-06T08:02:56.721Z,15.38
2023-05-06T08:05:27.191Z,15.52
2023-05-06T08:07:57.624Z,15.53
2023-05-06T08:10:28.209Z,15.55
2023-05-06T08:12:58.711Z,15.63
2023-05-06T08:15:32.096Z,15.69
2023-05-06T08:18:13.761Z,15.66
2023-05-06T08:20:51.942Z,15.67
2023-05-06T08:23:23.755Z,15.78
2023-05-06T08:25:54.198Z,15.88
2023-05-06T08:28:25.392Z,15.92
2023-05-06T08:30:59.099Z,16.02
2023-05-06T08:33:33.436Z,16.04
2023-05-06T08:36:03.902Z,16.15
2023-05-06T08:38:34.533Z,16.14
2023-05-06T08:41:12.234Z,16.24
2023-05-06T08:43:44.642Z,16.27
2023-05-06T08:46:18.388Z,16.27
2023-05-06T08:48:49.078Z,16.35
2023-05-06T08:51:20.054Z,16.41
2023-05-06T08:53:52.164Z,16.43
2023-05-06T08:56:27.211Z,16.50
2023-05-06T08:58:58.665Z,16.49
2023-05-06T09:01:32.745Z,16.51
2023-05-06T09:04:04.522Z,16.58
2023-05-06T09:06:34.941Z,16.66
2023-05-06T09:09:05.899Z,16.75
2023-05-06T09:11:36.330Z,16.87
2023-05-06T09:14:14.017Z,16.99
2023-05-06T09:16:51.178Z,17.03
2023-05-06T09:19:25.922Z,17.07
2023-05-06T09:21:56.980Z,17.10
2023-05-06T09:24:31.064Z,17.17
2023-05-06T09:27:01.967Z,17.23
2023-05-06T09:29:32.518Z,17.28
2023-05-06T09:32:11.910Z,17.25
2023-05-06T09:34:42.880Z,17.30
2023-05-06T09:37:13.755Z,17.36
2023-05-06T09:39:44.145Z,17.44
2023-05-06T09:42:14.694Z,17.41
2023-05-06T09:44:45.142Z,17.49
2023-05-06T09:47:21.585Z,17.58
2023-05-06T09:49:51.955Z,17.62
2023-05-06T09:52:22.521Z,17.67
2023-05-06T09:54:54.439Z,17.60
2023-05-06T09:57:26.433Z,17.65
2023-05-06T09:59:58.707Z,17.63
2023-05-06T10:02:32.433Z,17.69
2023-05-06T10:05:04.780Z,17.67
2023-05-06T10:07:35.931Z,17.75
2023-05-06T10:10:08.217Z,17.79
2023-05-06T10:12:39.290Z,17.86
2023-05-06T10:15:12.366Z,17.94
2023-05-06T10:17:49.039Z,18.03
2023-05-06T10:20:20.664Z,18.12
2023-05-06T10:23:02.962Z,18.26
2023-05-06T10:25:39.404Z,18.38
2023-05-06T10:28:18.169Z,18.41
2023-05-06T10:31:02.040Z,18.50
2023-05-06T10:33:35.355Z,18.62
2023-05-06T10:36:20.407Z,18.71
2023-05-06T10:38:57.563Z,18.79
2023-05-06T10:41:30.096Z,18.91
2023-05-06T10:44:01.062Z,18.96
2023-05-06T10:46:34.579Z,19.02
2023-05-06T10:49:23.839Z,18.99
2023-05-06T10:52:17.201Z,19.04
2023-05-06T10:54:55.105Z,19.09
2023-05-06T10:57:27.576Z,19.13
2023-05-06T10:59:58.143Z,19.19
2023-05-06T11:02:28.751Z,19.24
2023-05-06T11:05:07.763Z,19.28
2023-05-06T11:07:38.803Z,19.38
2023-05-06T11:10:13.571Z,19.37
2023-05-06T11:12:52.066Z,19.34
2023-05-06T11:15:28.502Z,19.48
2023-05-06T11:17:59.841Z,19.58
2023-05-06T11:20:32.782Z,19.59
2023-05-06T11:23:03.266Z,19.66
2023-05-06T11:25:43.923Z,19.64
2023-05-06T11:28:16.737Z,19.70
2023-05-06T11:30:57.250Z,19.85
2023-05-06T11:33:30.595Z,19.88
2023-05-06T11:36:04.616Z,19.88
2023-05-06T11:38:45.392Z,19.76
2023-05-06T11:41:16.267Z,19.87
2023-05-06T11:43:50.152Z,19.96
2023-05-06T11:46:23.030Z,20.04
2023-05-06T11:48:54.082Z,20.13
2023-05-06T11:51:28.715Z,20.19
2023-05-06T11:54:08.343Z,20.23
2023-05-06T11:56:54.556Z,20.37
2023-05-06T11:59:33.683Z,20.50
2023-05-06T12:02:06.518Z,20.56
2023-05-06T12:04:44.597Z,20.68
2023-05-06T12:07:19.021Z,21.05
2023-05-06T12:09:52.186Z,21.42
2023-05-06T12:12:25.176Z,21.89
2023-05-06T12:14:56.980Z,22.29
2023-05-06T12:17:27.670Z,22.60
2023-05-06T12:19:59.027Z,23.01
2023-05-06T12:22:31.986Z,23.20
2023-05-06T12:25:16.012Z,23.04
2023-05-06T12:27:46.382Z,23.07
2023-05-06T12:30:17.424Z,23.17
2023-05-06T12:33:00.194Z,23.23
2023-05-06T12:35:32.979Z,23.12
2023-05-06T12:38:15.007Z,23.09
2023-05-06T12:40:47.506Z,22.99
2023-05-06T12:43:17.950Z,23.12
2023-05-06T12:46:06.594Z,23.18
2023-05-06T12:48:37.053Z,23.22
2023-05-06T12:51:21.796Z,23.14
2023-05-06T12:53:54.545Z,23.08
2023-05-06T12:56:25.448Z,23.03
2023-05-06T12:59:03.758Z,23.01
2023-05-06T13:01:34.773Z,22.98
2023-05-06T13:04:05.425Z,23.18
2023-05-06T13:06:35.912Z,23.16
2023-05-06T13:09:09.868Z,23.23
2023-05-06T13:11:40.292Z,23.29
2023-05-06T13:14:11.115Z,23.24
2023-05-06T13:16:42.323Z,23.25
2023-05-06T13:19:30.947Z,23.15
2023-05-06T13:22:03.339Z,23.18
2023-05-06T13:24:36.651Z,23.35
2023-05-06T13:27:07.207Z,23.63
2023-05-06T13:29:37.770Z,23.75
2023-05-06T13:32:09.167Z,23.91
2023-05-06T13:34:39.945Z,24.13
2023-05-06T13:37:10.543Z,24.24
2023-05-06T13:39:43.647Z,24.37
2023-05-06T13:42:14.282Z,24.53
2023-05-06T13:44:44.732Z,24.68
2023-05-06T13:47:15.272Z,24.71
2023-05-06T13:49:45.968Z,24.80
2023-05-06T13:52:16.677Z,24.78
2023-05-06T13:54:49.695Z,24.84
2023-05-06T13:57:20.259Z,25.09
2023-05-06T13:59:50.655Z,25.27
2023-05-06T14:02:21.527Z,25.53
2023-05-06T14:04:51.982Z,25.74
2023-05-06T14:07:22.544Z,25.95
2023-05-06T14:09:55.887Z,26.27
2023-05-06T14:12:26.451Z,26.48
2023-05-06T14:14:57.350Z,26.70
2023-05-06T14:17:27.948Z,26.97
2023-05-06T14:19:58.328Z,27.17
2023-05-06T14:22:28.951Z,27.21
2023-05-06T14:25:02.237Z,27.27
2023-05-06T14:27:33.011Z,27.42
2023-05-06T14:30:08.229Z,27.46
2023-05-06T14:32:39.412Z,27.51
2023-05-06T14:35:13.392Z,27.53
2023-05-06T14:37:44.193Z,27.62
2023-05-06T14:40:19.333Z,27.66
2023-05-06T14:42:50.586Z,27.75
2023-05-06T14:45:21.741Z,27.81
2023-05-06T14:47:52.402Z,27.75
2023-05-06T14:50:23.180Z,27.79
2023-05-06T14:52:53.522Z,27.68
2023-05-06T14:55:26.711Z,27.60
2023-05-06T14:57:57.468Z,27.49
2023-05-06T15:00:28.917Z,27.54
2023-05-06T15:02:59.562Z,27.51
2023-05-06T15:05:30.160Z,27.55
2023-05-06T15:08:00.605Z,27.59
2023-05-06T15:10:33.894Z,27.56
2023-05-06T15:13:04.328Z,27.64
2023-05-06T15:15:34.778Z,27.62
2023-05-06T15:18:05.407Z,27.69
2023-05-06T15:20:36.207Z,27.81
2023-05-06T15:23:06.576Z,27.78
2023-05-06T15:25:39.950Z,27.70
2023-05-06T15:28:10.799Z,27.84
2023-05-06T15:30:41.562Z,27.82
2023-05-06T15:33:12.080Z,27.93
2023-05-06T15:35:42.491Z,27.95
2023-05-06T15:38:13.385Z,28.10
2023-05-06T15:40:53.449Z,28.15
2023-05-06T15:43:24.633Z,28.16
2023-05-06T15:45:55.386Z,28.18
2023-05-06T15:48:25.767Z,28.18
2023-05-06T15:50:56.379Z,28.25
2023-05-06T15:53:26.837Z,28.33
2023-05-06T15:56:13.190Z,28.35
2023-05-06T15:58:49.926Z,28.32
2023-05-06T16:01:26.936Z,28.30
2023-05-06T16:04:06.167Z,28.12
2023-05-06T16:06:37.690Z,28.01
2023-05-06T16:09:09.026Z,27.82
2023-05-06T16:11:42.237Z,27.65
2023-05-06T16:14:12.657Z,27.47
2023-05-06T16:16:43.282Z,27.33
2023-05-06T16:19:13.871Z,27.14
2023-05-06T16:21:44.182Z,27.07
2023-05-06T16:24:14.552Z,26.92
2023-05-06T16:26:47.834Z,26.84
2023-05-06T16:29:20.909Z,26.71
2023-05-06T16:31:51.692Z,26.72
2023-05-06T16:34:22.121Z,26.75
2023-05-06T16:36:53.099Z,26.77
2023-05-06T16:39:23.598Z,26.75
2023-05-06T16:41:56.780Z,26.71
2023-05-06T16:44:27.201Z,26.67
2023-05-06T16:46:57.679Z,26.54
2023-05-06T16:49:28.931Z,26.48
2023-05-06T16:52:00.733Z,26.32
2023-05-06T16:54:31.334Z,26.24
2023-05-06T16:57:04.672Z,26.22
2023-05-06T16:59:35.102Z,26.14
2023-05-06T17:02:05.808Z,26.16
2023-05-06T17:04:36.237Z,26.09
2023-05-06T17:07:06.985Z,25.95
2023-05-06T17:09:37.399Z,25.90
2023-05-06T17:12:11.036Z,25.87
2023-05-06T17:14:42.968Z,25.78
2023-05-06T17:17:13.337Z,25.74
2023-05-06T17:19:43.913Z,25.66
2023-05-06T17:22:14.290Z,25.50
2023-05-06T17:24:44.880Z,25.42
2023-05-06T17:27:18.185Z,25.31
2023-05-06T17:29:49.267Z,25.20
2023-05-06T17:32:20.004Z,25.13
2023-05-06T17:34:50.862Z,24.99
2023-05-06T17:37:21.290Z,24.91
2023-05-06T17:39:52.551Z,24.80
2023-05-06T17:42:27.659Z,24.70
2023-05-06T17:44:58.261Z,24.58
2023-05-06T17:47:30.399Z,24.49
2023-05-06T17:50:00.954Z,24.41
2023-05-06T17:52:31.582Z,24.33
2023-05-06T17:55:14.893Z,24.26
2023-05-06T17:57:50.916Z,24.17
2023-05-06T18:00:23.340Z,24.09
2023-05-06T18:02:54.012Z,24.02
2023-05-06T18:05:25.932Z,23.95
2023-05-06T18:07:56.354Z,23.87
2023-05-06T18:10:26.788Z,23.80
2023-05-06T18:12:59.981Z,23.72
2023-05-06T18:15:30.650Z,23.63
2023-05-06T18:18:01.147Z,23.55
2023-05-06T18:20:31.801Z,23.46
2023-05-06T18:23:02.257Z,23.37
2023-05-06T18:25:32.695Z,23.30
2023-05-06T18:28:05.656Z,23.22
2023-05-06T18:30:36.023Z,23.14
2023-05-06T18:33:06.672Z,23.06
2023-05-06T18:35:37.091Z,22.97
2023-05-06T18:38:07.424Z,22.89
2023-05-06T18:40:38.200Z,22.82
2023-05-06T18:43:11.384Z,22.75
2023-05-06T18:45:42.670Z,22.65
2023-05-06T18:48:13.288Z,22.57
2023-05-06T18:50:44.623Z,22.47
2023-05-06T18:53:15.124Z,22.40
2023-05-06T18:55:45.650Z,22.32
2023-05-06T18:58:18.636Z,22.26
2023-05-06T19:00:49.480Z,22.16
2023-05-06T19:03:19.900Z,22.10
2023-05-06T19:05:50.463Z,22.04
2023-05-06T19:08:20.786Z,21.98
2023-05-06T19:10:51.270Z,21.93
2023-05-06T19:13:24.337Z,21.88
2023-05-06T19:15:54.765Z,21.80
2023-05-06T19:18:25.112Z,21.72
2023-05-06T19:20:56.176Z,21.66
2023-05-06T19:23:26.863Z,21.62
2023-05-06T19:25:57.298Z,21.56
2023-05-06T19:28:30.504Z,21.46
2023-05-06T19:31:01.121Z,21.40
2023-05-06T19:33:31.651Z,21.34
2023-05-06T19:36:02.553Z,21.27
2023-05-06T19:38:33.091Z,21.21
2023-05-06T19:41:04.448Z,21.16
2023-05-06T19:43:37.505Z,21.13
2023-05-06T19:46:08.748Z,21.09
2023-05-06T19:48:39.169Z,21.07
2023-05-06T19:51:10.243Z,21.00
2023-05-06T19:53:40.672Z,20.96
2023-05-06T19:56:12.561Z,20.88
2023-05-06T19:58:46.188Z,20.84
2023-05-06T20:01:17.296Z,20.77
2023-05-06T20:03:47.918Z,20.73
2023-05-06T20:06:18.449Z,20.68
2023-05-06T20:08:48.981Z,20.63
2023-05-06T20:11:19.508Z,20.58
2023-05-06T20:13:52.534Z,20.57
2023-05-06T20:16:23.294Z,20.48
2023-05-06T20:18:54.153Z,20.41
2023-05-06T20:21:24.611Z,20.37
2023-05-06T20:23:55.292Z,20.33
2023-05-06T20:26:26.859Z,20.27
2023-05-06T20:29:01.233Z,20.22
2023-05-06T20:31:31.789Z,20.18
2023-05-06T20:34:02.243Z,20.13
2023-05-06T20:36:35.119Z,20.13
2023-05-06T20:39:05.654Z,20.12
2023-05-06T20:41:36.333Z,20.08
2023-05-06T20:44:09.669Z,20.01
2023-05-06T20:46:40.035Z,19.97
2023-05-06T20:49:11.087Z,19.92
2023-05-06T20:51:41.481Z,19.84
2023-05-06T20:54:12.155Z,19.77
2023-05-06T20:56:43.104Z,19.72
2023-05-06T20:59:16.093Z,19.66
2023-05-06T21:01:46.597Z,19.57
2023-05-06T21:04:17.836Z,19.51
2023-05-06T21:06:48.228Z,19.46
2023-05-06T21:09:19.063Z,19.43
2023-05-06T21:11:49.528Z,19.38
2023-05-06T21:14:23.558Z,19.33
2023-05-06T21:16:54.535Z,19.28
2023-05-06T21:19:24.916Z,19.22
2023-05-06T21:21:55.474Z,19.16
2023-05-06T21:24:26.339Z,19.09
2023-05-06T21:26:56.858Z,19.04
2023-05-06T21:29:29.981Z,19.00
2023-05-06T21:32:00.647Z,18.93
2023-05-06T21:34:31.571Z,18.91
2023-05-06T21:37:02.076Z,18.91
2023-05-06T21:39:32.513Z,18.87
2023-05-06T21:42:03.147Z,18.81
2023-05-06T21:44:36.324Z,18.70
2023-05-06T21:47:06.716Z,18.68
2023-05-06T21:49:37.059Z,18.66
2023-05-06T21:52:08.867Z,18.61
2023-05-06T21:54:39.343Z,18.65
2023-05-06T21:57:09.979Z,18.59
2023-05-06T21:59:43.233Z,18.56
2023-05-06T22:02:13.793Z,18.49
2023-05-06T22:04:44.587Z,18.39
2023-05-06T22:07:15.023Z,18.27
2023-05-06T22:09:45.711Z,18.19
2023-05-06T22:12:16.122Z,18.06
2023-05-06T22:14:49.099Z,18.01
2023-05-06T22:17:19.496Z,17.96
2023-05-06T22:19:50.002Z,17.91
2023-05-06T22:22:21.174Z,17.87
2023-05-06T22:24:51.607Z,17.76
2023-05-06T22:27:22.364Z,17.69
2023-05-06T22:29:55.591Z,17.64
2023-05-06T22:32:26.320Z,17.62
2023-05-06T22:34:56.915Z,17.55
2023-05-06T22:37:27.547Z,17.51
2023-05-06T22:39:59.243Z,17.44
2023-05-06T22:42:29.709Z,17.42
2023-05-06T22:45:02.865Z,17.38
2023-05-06T22:47:33.481Z,17.36
2023-05-06T22:50:03.950Z,17.32
2023-05-06T22:52:34.990Z,17.31
2023-05-06T22:55:06.049Z,17.23
2023-05-06T22:57:36.652Z,17.19
2023-05-06T23:00:13.874Z,17.15
2023-05-06T23:02:44.361Z,17.12
2023-05-06T23:05:15.018Z,17.08
2023-05-06T23:07:45.546Z,17.04
2023-05-06T23:10:16.018Z,16.99
2023-05-06T23:12:46.446Z,16.98
2023-05-06T23:15:19.467Z,16.95
2023-05-06T23:17:50.111Z,16.87
2023-05-06T23:20:20.762Z,16.83
2023-05-06T23:22:51.153Z,16.82
2023-05-06T23:25:22.083Z,16.72
2023-05-06T23:27:52.563Z,16.70
2023-05-06T23:30:25.695Z,16.65
2023-05-06T23:32:56.137Z,16.60
2023-05-06T23:35:27.047Z,16.60
2023-05-06T23:37:57.428Z,16.55
2023-05-06T23:40:28.021Z,16.52
2023-05-06T23:42:58.331Z,16.52
2023-05-06T23:45:31.680Z,16.50
2023-05-06T23:48:02.190Z,16.49
2023-05-06T23:50:32.854Z,16.47
2023-05-06T23:53:03.528Z,16.44
2023-05-06T23:55:34.552Z,16.43
2023-05-06T23:58:04.988Z,16.42
